sensor_id;sensor_type;location;lat;lon;timestamp;temperature;humidity
27667;DHT22;15074;50.940;5.282;2023-02-15T00:36:48;1.90;99.90
27667;DHT22;15074;50.940;5.282;2023-02-15T00:39:14;1.90;99.90
27667;DHT22;15074;50.940;5.282;2023-02-15T01:09:23;1.90;99.90
27667;DHT22;15074;50.940;5.282;2023-02-15T01:11:49;1.80;99.90
27667;DHT22;15074;50.940;5.282;2023-02-15T01:14:14;1.80;99.90
27667;DHT22;15074;50.940;5.282;2023-02-15T01:23:42;1.70;99.90
27667;DHT22;15074;50.940;5.282;2023-02-15T03:02:24;1.20;99.90
27667;DHT22;15074;50.940;5.282;2023-02-15T03:08:16;1.00;99.90
27667;DHT22;15074;50.940;5.282;2023-02-15T05:29:47;0.10;99.90
27667;DHT22;15074;50.940;5.282;2023-02-15T06:47:01;0.60;99.90
27667;DHT22;15074;50.940;5.282;2023-02-15T07:47:15;2.20;99.90
27667;DHT22;15074;50.940;5.282;2023-02-15T07:49:41;2.40;99.90
27667;DHT22;15074;50.940;5.282;2023-02-15T07:52:06;2.50;99.90
27667;DHT22;15074;50.940;5.282;2023-02-15T07:54:32;2.40;99.90
27667;DHT22;15074;50.940;5.282;2023-02-15T07:56:57;2.90;99.90
27667;DHT22;15074;50.940;5.282;2023-02-15T07:59:23;3.90;99.90
27667;DHT22;15074;50.940;5.282;2023-02-15T08:01:49;5.20;99.90
27667;DHT22;15074;50.940;5.282;2023-02-15T08:04:15;5.80;99.90
27667;DHT22;15074;50.940;5.282;2023-02-15T08:06:41;6.40;99.90
27667;DHT22;15074;50.940;5.282;2023-02-15T08:09:08;7.00;99.90
27667;DHT22;15074;50.940;5.282;2023-02-15T08:11:35;7.40;99.90
27667;DHT22;15074;50.940;5.282;2023-02-15T08:14:10;8.30;99.90
27667;DHT22;15074;50.940;5.282;2023-02-15T08:19:16;10.20;99.90
27667;DHT22;15074;50.940;5.282;2023-02-15T08:21:43;10.50;99.90
27667;DHT22;15074;50.940;5.282;2023-02-15T08:24:11;10.80;99.90
27667;DHT22;15074;50.940;5.282;2023-02-15T08:26:39;11.20;99.90
27667;DHT22;15074;50.940;5.282;2023-02-15T08:29:05;10.80;99.90
27667;DHT22;15074;50.940;5.282;2023-02-15T08:31:32;10.10;99.90
27667;DHT22;15074;50.940;5.282;2023-02-15T08:33:58;10.40;99.90
27667;DHT22;15074;50.940;5.282;2023-02-15T08:36:27;11.10;99.90
27667;DHT22;15074;50.940;5.282;2023-02-15T08:38:54;11.90;99.90
27667;DHT22;15074;50.940;5.282;2023-02-15T08:41:22;13.20;99.90
27667;DHT22;15074;50.940;5.282;2023-02-15T08:43:54;14.30;99.90
27667;DHT22;15074;50.940;5.282;2023-02-15T08:46:21;14.30;99.90
27667;DHT22;15074;50.940;5.282;2023-02-15T08:48:47;14.40;99.90
27667;DHT22;15074;50.940;5.282;2023-02-15T08:51:14;14.80;99.90
27667;DHT22;15074;50.940;5.282;2023-02-15T08:53:42;14.60;99.90
27667;DHT22;15074;50.940;5.282;2023-02-15T08:56:08;13.80;99.90
27667;DHT22;15074;50.940;5.282;2023-02-15T08:58:34;13.70;99.90
27667;DHT22;15074;50.940;5.282;2023-02-15T09:01:02;13.70;99.90
27667;DHT22;15074;50.940;5.282;2023-02-15T09:03:33;13.90;99.90
27667;DHT22;15074;50.940;5.282;2023-02-15T09:06:00;14.20;99.90
27667;DHT22;15074;50.940;5.282;2023-02-15T09:08:27;13.50;99.90
27667;DHT22;15074;50.940;5.282;2023-02-15T09:10:52;13.10;99.90
27667;DHT22;15074;50.940;5.282;2023-02-15T09:13:18;12.50;99.90
27667;DHT22;15074;50.940;5.282;2023-02-15T09:15:44;12.50;99.90
27667;DHT22;15074;50.940;5.282;2023-02-15T09:18:10;12.50;99.90
27667;DHT22;15074;50.940;5.282;2023-02-15T09:20:37;13.00;99.90
27667;DHT22;15074;50.940;5.282;2023-02-15T09:23:03;13.60;99.90
27667;DHT22;15074;50.940;5.282;2023-02-15T09:25:28;12.80;99.90
27667;DHT22;15074;50.940;5.282;2023-02-15T09:27:54;12.60;99.90
27667;DHT22;15074;50.940;5.282;2023-02-15T09:30:20;13.00;99.90
27667;DHT22;15074;50.940;5.282;2023-02-15T09:32:47;13.40;99.90
27667;DHT22;15074;50.940;5.282;2023-02-15T09:35:13;14.20;99.90
27667;DHT22;15074;50.940;5.282;2023-02-15T09:37:38;14.50;99.90
27667;DHT22;15074;50.940;5.282;2023-02-15T09:40:04;14.50;99.90
27667;DHT22;15074;50.940;5.282;2023-02-15T09:43:06;14.50;99.90
27667;DHT22;15074;50.940;5.282;2023-02-15T09:48:39;13.30;99.90
27667;DHT22;15074;50.940;5.282;2023-02-15T09:54:01;13.60;99.90
27667;DHT22;15074;50.940;5.282;2023-02-15T09:56:42;14.90;99.90
27667;DHT22;15074;50.940;5.282;2023-02-15T10:07:51;14.90;99.90
27667;DHT22;15074;50.940;5.282;2023-02-15T10:10:41;15.40;99.90
27667;DHT22;15074;50.940;5.282;2023-02-15T10:13:40;15.60;99.90
27667;DHT22;15074;50.940;5.282;2023-02-15T10:16:22;16.80;99.90
27667;DHT22;15074;50.940;5.282;2023-02-15T10:19:28;16.00;99.90
27667;DHT22;15074;50.940;5.282;2023-02-15T10:22:01;15.70;99.90
27667;DHT22;15074;50.940;5.282;2023-02-15T10:27:30;15.00;99.90
27667;DHT22;15074;50.940;5.282;2023-02-15T10:30:10;15.20;99.90
27667;DHT22;15074;50.940;5.282;2023-02-15T10:33:03;15.70;99.90
27667;DHT22;15074;50.940;5.282;2023-02-15T10:43:41;18.10;99.90
27667;DHT22;15074;50.940;5.282;2023-02-15T10:54:43;18.20;99.90
27667;DHT22;15074;50.940;5.282;2023-02-15T11:02:52;18.30;97.60
27667;DHT22;15074;50.940;5.282;2023-02-15T11:08:43;18.50;97.60
27667;DHT22;15074;50.940;5.282;2023-02-15T11:11:32;17.50;98.20
27667;DHT22;15074;50.940;5.282;2023-02-15T11:14:03;17.90;98.80
27667;DHT22;15074;50.940;5.282;2023-02-15T11:16:40;18.40;97.60
27667;DHT22;15074;50.940;5.282;2023-02-15T11:19:32;18.00;98.20
27667;DHT22;15074;50.940;5.282;2023-02-15T11:22:02;18.60;97.60
27667;DHT22;15074;50.940;5.282;2023-02-15T11:24:30;17.60;98.70
27667;DHT22;15074;50.940;5.282;2023-02-15T11:27:21;17.90;98.30
27667;DHT22;15074;50.940;5.282;2023-02-15T11:32:45;17.80;98.70
27667;DHT22;15074;50.940;5.282;2023-02-15T11:42:46;18.60;96.10
27667;DHT22;15074;50.940;5.282;2023-02-15T11:47:46;19.20;95.60
27667;DHT22;15074;50.940;5.282;2023-02-15T11:50:15;19.60;95.50
27667;DHT22;15074;50.940;5.282;2023-02-15T11:52:43;18.90;95.90
27667;DHT22;15074;50.940;5.282;2023-02-15T11:55:16;19.10;95.30
27667;DHT22;15074;50.940;5.282;2023-02-15T11:57:45;18.40;96.20
27667;DHT22;15074;50.940;5.282;2023-02-15T12:03:04;17.90;96.80
27667;DHT22;15074;50.940;5.282;2023-02-15T12:05:35;17.70;96.30
27667;DHT22;15074;50.940;5.282;2023-02-15T12:08:08;17.20;97.30
27667;DHT22;15074;50.940;5.282;2023-02-15T12:10:56;17.40;98.20
27667;DHT22;15074;50.940;5.282;2023-02-15T12:13:23;17.80;97.30
27667;DHT22;15074;50.940;5.282;2023-02-15T12:15:52;17.90;95.80
27667;DHT22;15074;50.940;5.282;2023-02-15T12:18:32;17.80;95.50
27667;DHT22;15074;50.940;5.282;2023-02-15T12:21:06;18.20;96.70
27667;DHT22;15074;50.940;5.282;2023-02-15T12:23:33;18.90;96.00
27667;DHT22;15074;50.940;5.282;2023-02-15T12:25:59;18.80;95.50
27667;DHT22;15074;50.940;5.282;2023-02-15T12:28:40;18.40;95.20
27667;DHT22;15074;50.940;5.282;2023-02-15T12:33:51;17.90;96.50
27667;DHT22;15074;50.940;5.282;2023-02-15T12:36:24;18.00;97.10
27667;DHT22;15074;50.940;5.282;2023-02-15T12:41:38;17.60;96.30
27667;DHT22;15074;50.940;5.282;2023-02-15T12:44:26;17.40;97.10
27667;DHT22;15074;50.940;5.282;2023-02-15T12:47:17;17.00;98.30
27667;DHT22;15074;50.940;5.282;2023-02-15T12:49:44;17.20;98.60
27667;DHT22;15074;50.940;5.282;2023-02-15T12:52:23;17.60;97.30
27667;DHT22;15074;50.940;5.282;2023-02-15T12:54:49;16.80;98.40
27667;DHT22;15074;50.940;5.282;2023-02-15T12:57:33;16.00;99.90
27667;DHT22;15074;50.940;5.282;2023-02-15T13:00:24;16.00;99.60
27667;DHT22;15074;50.940;5.282;2023-02-15T13:02:52;16.10;99.90
27667;DHT22;15074;50.940;5.282;2023-02-15T13:05:28;16.20;99.90
27667;DHT22;15074;50.940;5.282;2023-02-15T13:08:14;15.90;99.90
27667;DHT22;15074;50.940;5.282;2023-02-15T13:10:52;15.20;99.90
27667;DHT22;15074;50.940;5.282;2023-02-15T13:13:22;15.70;99.90
27667;DHT22;15074;50.940;5.282;2023-02-15T13:15:55;16.30;99.90
27667;DHT22;15074;50.940;5.282;2023-02-15T13:18:38;15.90;99.70
27667;DHT22;15074;50.940;5.282;2023-02-15T13:21:20;15.60;99.90
27667;DHT22;15074;50.940;5.282;2023-02-15T13:23:48;15.50;99.90
27667;DHT22;15074;50.940;5.282;2023-02-15T13:26:21;15.50;99.90
27667;DHT22;15074;50.940;5.282;2023-02-15T13:28:54;15.40;99.90
27667;DHT22;15074;50.940;5.282;2023-02-15T13:31:24;14.90;99.90
27667;DHT22;15074;50.940;5.282;2023-02-15T13:33:56;14.70;99.90
27667;DHT22;15074;50.940;5.282;2023-02-15T13:39:39;15.00;99.90
27667;DHT22;15074;50.940;5.282;2023-02-15T13:47:21;15.50;99.90
27667;DHT22;15074;50.940;5.282;2023-02-15T14:01:38;15.70;99.90
27667;DHT22;15074;50.940;5.282;2023-02-15T14:23:33;15.60;99.90
27667;DHT22;15074;50.940;5.282;2023-02-15T14:31:34;15.00;99.90
27667;DHT22;15074;50.940;5.282;2023-02-15T14:34:00;14.90;99.90
27667;DHT22;15074;50.940;5.282;2023-02-15T14:36:27;15.20;99.90
27667;DHT22;15074;50.940;5.282;2023-02-15T14:42:56;15.30;99.90
27667;DHT22;15074;50.940;5.282;2023-02-15T14:50:55;14.50;99.90
27667;DHT22;15074;50.940;5.282;2023-02-15T14:56:16;14.60;99.90
27667;DHT22;15074;50.940;5.282;2023-02-15T15:01:15;14.50;99.90
27667;DHT22;15074;50.940;5.282;2023-02-15T15:03:51;14.40;99.90
27667;DHT22;15074;50.940;5.282;2023-02-15T15:06:32;14.40;99.90
27667;DHT22;15074;50.940;5.282;2023-02-15T15:09:12;14.30;99.90
27667;DHT22;15074;50.940;5.282;2023-02-15T15:11:43;14.20;99.90
27667;DHT22;15074;50.940;5.282;2023-02-15T15:14:10;14.10;99.90
27667;DHT22;15074;50.940;5.282;2023-02-15T15:19:03;13.80;99.90
27667;DHT22;15074;50.940;5.282;2023-02-15T15:27:40;13.80;99.90
27667;DHT22;15074;50.940;5.282;2023-02-15T15:36:34;13.70;99.90
27667;DHT22;15074;50.940;5.282;2023-02-15T15:50:54;13.50;99.90
27667;DHT22;15074;50.940;5.282;2023-02-15T15:53:24;13.20;99.90
27667;DHT22;15074;50.940;5.282;2023-02-15T15:55:56;13.10;99.90
27667;DHT22;15074;50.940;5.282;2023-02-15T15:58:24;13.20;99.90
27667;DHT22;15074;50.940;5.282;2023-02-15T16:00:55;13.00;99.90
27667;DHT22;15074;50.940;5.282;2023-02-15T16:03:28;12.60;99.90
27667;DHT22;15074;50.940;5.282;2023-02-15T16:05:54;12.40;99.90
27667;DHT22;15074;50.940;5.282;2023-02-15T16:08:31;12.20;99.90
27667;DHT22;15074;50.940;5.282;2023-02-15T16:10:58;12.10;99.90
27667;DHT22;15074;50.940;5.282;2023-02-15T16:13:24;11.90;99.90
27667;DHT22;15074;50.940;5.282;2023-02-15T16:15:53;11.70;99.90
27667;DHT22;15074;50.940;5.282;2023-02-15T16:18:22;11.50;99.90
27667;DHT22;15074;50.940;5.282;2023-02-15T16:20:52;11.30;99.90
27667;DHT22;15074;50.940;5.282;2023-02-15T16:28:29;11.20;99.90
27667;DHT22;15074;50.940;5.282;2023-02-15T16:31:11;11.10;99.90
27667;DHT22;15074;50.940;5.282;2023-02-15T16:33:39;10.90;99.90
27667;DHT22;15074;50.940;5.282;2023-02-15T16:36:05;10.80;99.90
27667;DHT22;15074;50.940;5.282;2023-02-15T16:41:10;10.50;99.90
27667;DHT22;15074;50.940;5.282;2023-02-15T16:43:39;10.40;99.90
27667;DHT22;15074;50.940;5.282;2023-02-15T16:46:24;10.30;99.90
27667;DHT22;15074;50.940;5.282;2023-02-15T16:48:52;10.20;99.90
27667;DHT22;15074;50.940;5.282;2023-02-15T16:51:22;10.10;99.90
27667;DHT22;15074;50.940;5.282;2023-02-15T16:53:49;10.10;99.90
27667;DHT22;15074;50.940;5.282;2023-02-15T16:56:15;9.90;99.90
27667;DHT22;15074;50.940;5.282;2023-02-15T16:58:44;9.70;99.90
27667;DHT22;15074;50.940;5.282;2023-02-15T17:01:13;9.60;99.90
27667;DHT22;15074;50.940;5.282;2023-02-15T17:03:40;9.60;99.90
27667;DHT22;15074;50.940;5.282;2023-02-15T17:06:22;9.50;99.90
27667;DHT22;15074;50.940;5.282;2023-02-15T17:08:49;9.40;99.90
27667;DHT22;15074;50.940;5.282;2023-02-15T17:11:22;9.40;99.90
27667;DHT22;15074;50.940;5.282;2023-02-15T17:16:53;9.20;99.90
27667;DHT22;15074;50.940;5.282;2023-02-15T17:19:25;9.00;99.90
27667;DHT22;15074;50.940;5.282;2023-02-15T17:21:55;9.00;99.90
27667;DHT22;15074;50.940;5.282;2023-02-15T17:24:32;8.90;99.90
27667;DHT22;15074;50.940;5.282;2023-02-15T17:27:04;8.80;99.90
27667;DHT22;15074;50.940;5.282;2023-02-15T17:29:36;8.80;99.90
27667;DHT22;15074;50.940;5.282;2023-02-15T17:32:03;8.80;99.90
27667;DHT22;15074;50.940;5.282;2023-02-15T17:35:31;8.80;99.90
27667;DHT22;15074;50.940;5.282;2023-02-15T17:40:26;8.60;99.90
27667;DHT22;15074;50.940;5.282;2023-02-15T17:42:53;8.60;99.90
27667;DHT22;15074;50.940;5.282;2023-02-15T17:45:20;8.50;99.90
27667;DHT22;15074;50.940;5.282;2023-02-15T17:47:48;8.50;99.90
27667;DHT22;15074;50.940;5.282;2023-02-15T17:50:23;8.30;99.90
27667;DHT22;15074;50.940;5.282;2023-02-15T17:52:50;8.30;99.90
27667;DHT22;15074;50.940;5.282;2023-02-15T17:55:19;8.30;99.90
27667;DHT22;15074;50.940;5.282;2023-02-15T17:58:02;8.30;99.90
27667;DHT22;15074;50.940;5.282;2023-02-15T18:00:30;8.30;99.90
27667;DHT22;15074;50.940;5.282;2023-02-15T18:03:14;8.40;99.90
27667;DHT22;15074;50.940;5.282;2023-02-15T18:05:59;8.50;99.90
27667;DHT22;15074;50.940;5.282;2023-02-15T18:08:43;8.40;99.90
27667;DHT22;15074;50.940;5.282;2023-02-15T18:11:27;8.30;99.90
27667;DHT22;15074;50.940;5.282;2023-02-15T18:14:07;8.20;99.90
27667;DHT22;15074;50.940;5.282;2023-02-15T18:16:38;8.20;99.90
27667;DHT22;15074;50.940;5.282;2023-02-15T18:19:15;8.00;99.90
27667;DHT22;15074;50.940;5.282;2023-02-15T18:21:42;7.90;99.90
27667;DHT22;15074;50.940;5.282;2023-02-15T18:24:19;7.90;99.90
27667;DHT22;15074;50.940;5.282;2023-02-15T18:26:46;7.90;99.90
27667;DHT22;15074;50.940;5.282;2023-02-15T18:29:11;7.80;99.90
27667;DHT22;15074;50.940;5.282;2023-02-15T18:31:37;7.90;99.90
27667;DHT22;15074;50.940;5.282;2023-02-15T18:34:04;8.00;99.90
27667;DHT22;15074;50.940;5.282;2023-02-15T18:36:39;7.90;99.90
27667;DHT22;15074;50.940;5.282;2023-02-15T18:41:51;8.10;99.90
27667;DHT22;15074;50.940;5.282;2023-02-15T18:44:17;8.10;99.90
27667;DHT22;15074;50.940;5.282;2023-02-15T18:46:43;8.00;99.90
27667;DHT22;15074;50.940;5.282;2023-02-15T18:49:09;7.90;99.90
27667;DHT22;15074;50.940;5.282;2023-02-15T18:51:34;7.90;99.90
27667;DHT22;15074;50.940;5.282;2023-02-15T18:54:05;7.90;99.90
27667;DHT22;15074;50.940;5.282;2023-02-15T18:56:36;7.80;99.90
27667;DHT22;15074;50.940;5.282;2023-02-15T18:59:02;7.90;99.90
27667;DHT22;15074;50.940;5.282;2023-02-15T19:01:29;7.90;99.90
27667;DHT22;15074;50.940;5.282;2023-02-15T19:03:54;7.80;99.90
27667;DHT22;15074;50.940;5.282;2023-02-15T19:06:21;7.70;99.90
27667;DHT22;15074;50.940;5.282;2023-02-15T19:08:51;7.70;99.90
27667;DHT22;15074;50.940;5.282;2023-02-15T19:11:20;7.70;99.90
27667;DHT22;15074;50.940;5.282;2023-02-15T19:13:48;7.70;99.90
27667;DHT22;15074;50.940;5.282;2023-02-15T19:16:43;7.70;99.90
27667;DHT22;15074;50.940;5.282;2023-02-15T19:19:09;7.60;99.90
27667;DHT22;15074;50.940;5.282;2023-02-15T19:21:34;7.60;99.90
27667;DHT22;15074;50.940;5.282;2023-02-15T19:24:07;7.60;99.90
27667;DHT22;15074;50.940;5.282;2023-02-15T19:26:37;7.50;99.90
27667;DHT22;15074;50.940;5.282;2023-02-15T19:29:05;7.30;99.90
27667;DHT22;15074;50.940;5.282;2023-02-15T19:31:30;6.90;99.90
27667;DHT22;15074;50.940;5.282;2023-02-15T19:33:56;6.90;99.90
27667;DHT22;15074;50.940;5.282;2023-02-15T19:36:22;6.90;99.90
27667;DHT22;15074;50.940;5.282;2023-02-15T19:38:51;6.80;99.90
27667;DHT22;15074;50.940;5.282;2023-02-15T19:41:32;6.80;99.90
27667;DHT22;15074;50.940;5.282;2023-02-15T19:43:59;6.60;99.90
27667;DHT22;15074;50.940;5.282;2023-02-15T19:46:25;6.50;99.90
27667;DHT22;15074;50.940;5.282;2023-02-15T19:48:52;6.50;99.90
27667;DHT22;15074;50.940;5.282;2023-02-15T19:51:19;6.60;99.90
27667;DHT22;15074;50.940;5.282;2023-02-15T19:53:47;6.60;99.90
27667;DHT22;15074;50.940;5.282;2023-02-15T19:56:17;6.70;99.90
27667;DHT22;15074;50.940;5.282;2023-02-15T19:58:45;6.80;99.90
27667;DHT22;15074;50.940;5.282;2023-02-15T20:01:10;6.80;99.90
27667;DHT22;15074;50.940;5.282;2023-02-15T20:03:36;6.60;99.90
27667;DHT22;15074;50.940;5.282;2023-02-15T20:06:02;6.40;99.90
27667;DHT22;15074;50.940;5.282;2023-02-15T20:08:29;6.20;99.90
27667;DHT22;15074;50.940;5.282;2023-02-15T20:10:57;6.00;99.90
27667;DHT22;15074;50.940;5.282;2023-02-15T20:13:26;5.90;99.90
27667;DHT22;15074;50.940;5.282;2023-02-15T20:15:53;5.90;99.90
27667;DHT22;15074;50.940;5.282;2023-02-15T20:18:19;5.80;99.90
27667;DHT22;15074;50.940;5.282;2023-02-15T20:20:51;5.90;99.90
27667;DHT22;15074;50.940;5.282;2023-02-15T20:23:26;5.90;99.90
27667;DHT22;15074;50.940;5.282;2023-02-15T20:25:53;6.00;99.90
27667;DHT22;15074;50.940;5.282;2023-02-15T20:28:24;6.10;99.90
27667;DHT22;15074;50.940;5.282;2023-02-15T20:30:50;6.30;99.90
27667;DHT22;15074;50.940;5.282;2023-02-15T20:33:16;6.30;99.90
27667;DHT22;15074;50.940;5.282;2023-02-15T20:35:43;6.40;99.90
27667;DHT22;15074;50.940;5.282;2023-02-15T20:38:17;6.40;99.90
27667;DHT22;15074;50.940;5.282;2023-02-15T20:40:44;6.20;99.90
27667;DHT22;15074;50.940;5.282;2023-02-15T20:43:30;6.20;99.90
27667;DHT22;15074;50.940;5.282;2023-02-15T20:45:55;6.10;99.90
27667;DHT22;15074;50.940;5.282;2023-02-15T20:48:21;6.10;99.90
27667;DHT22;15074;50.940;5.282;2023-02-15T20:50:47;5.90;99.90
27667;DHT22;15074;50.940;5.282;2023-02-15T20:53:13;5.90;99.90
27667;DHT22;15074;50.940;5.282;2023-02-15T20:55:38;5.90;99.90
27667;DHT22;15074;50.940;5.282;2023-02-15T20:58:20;6.00;99.90
27667;DHT22;15074;50.940;5.282;2023-02-15T21:00:45;5.90;99.90
27667;DHT22;15074;50.940;5.282;2023-02-15T21:03:12;5.90;99.90
27667;DHT22;15074;50.940;5.282;2023-02-15T21:05:38;6.00;99.90
27667;DHT22;15074;50.940;5.282;2023-02-15T21:08:19;6.00;99.90
27667;DHT22;15074;50.940;5.282;2023-02-15T21:10:47;6.10;99.90
27667;DHT22;15074;50.940;5.282;2023-02-15T21:15:45;6.30;99.90
27667;DHT22;15074;50.940;5.282;2023-02-15T21:18:16;6.40;99.90
27667;DHT22;15074;50.940;5.282;2023-02-15T21:20:45;6.30;99.90
27667;DHT22;15074;50.940;5.282;2023-02-15T21:23:12;6.40;99.90
27667;DHT22;15074;50.940;5.282;2023-02-15T21:25:39;6.20;99.90
27667;DHT22;15074;50.940;5.282;2023-02-15T21:28:05;6.00;99.90
27667;DHT22;15074;50.940;5.282;2023-02-15T21:30:33;5.80;99.90
27667;DHT22;15074;50.940;5.282;2023-02-15T21:32:59;5.80;99.90
27667;DHT22;15074;50.940;5.282;2023-02-15T21:35:25;5.80;99.90
27667;DHT22;15074;50.940;5.282;2023-02-15T21:37:51;5.70;99.90
27667;DHT22;15074;50.940;5.282;2023-02-15T21:40:27;5.70;99.90
27667;DHT22;15074;50.940;5.282;2023-02-15T21:42:53;5.60;99.90
27667;DHT22;15074;50.940;5.282;2023-02-15T21:45:37;5.50;99.90
27667;DHT22;15074;50.940;5.282;2023-02-15T21:48:41;5.40;99.90
27667;DHT22;15074;50.940;5.282;2023-02-15T21:51:06;5.20;99.90
27667;DHT22;15074;50.940;5.282;2023-02-15T21:53:51;5.00;99.90
27667;DHT22;15074;50.940;5.282;2023-02-15T21:56:19;5.00;99.90
27667;DHT22;15074;50.940;5.282;2023-02-15T21:58:45;4.90;99.90
27667;DHT22;15074;50.940;5.282;2023-02-15T22:01:24;4.80;99.90
27667;DHT22;15074;50.940;5.282;2023-02-15T22:03:52;4.60;99.90
27667;DHT22;15074;50.940;5.282;2023-02-15T22:06:18;4.50;99.90
27667;DHT22;15074;50.940;5.282;2023-02-15T22:08:44;4.50;99.90
27667;DHT22;15074;50.940;5.282;2023-02-15T22:11:14;4.40;99.90
27667;DHT22;15074;50.940;5.282;2023-02-15T22:13:40;4.30;99.90
27667;DHT22;15074;50.940;5.282;2023-02-15T22:16:15;4.20;99.90
27667;DHT22;15074;50.940;5.282;2023-02-15T22:18:42;4.30;99.90
27667;DHT22;15074;50.940;5.282;2023-02-15T22:21:09;4.40;99.90
27667;DHT22;15074;50.940;5.282;2023-02-15T22:23:34;4.30;99.90
27667;DHT22;15074;50.940;5.282;2023-02-15T22:26:12;4.40;99.90
27667;DHT22;15074;50.940;5.282;2023-02-15T22:28:40;4.30;99.90
27667;DHT22;15074;50.940;5.282;2023-02-15T22:31:11;4.40;99.90
27667;DHT22;15074;50.940;5.282;2023-02-15T22:33:38;4.40;99.90
27667;DHT22;15074;50.940;5.282;2023-02-15T22:36:03;4.40;99.90
27667;DHT22;15074;50.940;5.282;2023-02-15T22:38:29;4.40;99.90
27667;DHT22;15074;50.940;5.282;2023-02-15T22:40:57;4.40;99.90
27667;DHT22;15074;50.940;5.282;2023-02-15T22:43:37;4.20;99.90
27667;DHT22;15074;50.940;5.282;2023-02-15T22:46:12;4.30;99.90
27667;DHT22;15074;50.940;5.282;2023-02-15T22:48:39;4.20;99.90
27667;DHT22;15074;50.940;5.282;2023-02-15T22:51:04;4.20;99.90
27667;DHT22;15074;50.940;5.282;2023-02-15T22:53:30;4.10;99.90
27667;DHT22;15074;50.940;5.282;2023-02-15T22:55:57;4.10;99.90
27667;DHT22;15074;50.940;5.282;2023-02-15T22:58:27;3.90;99.90
27667;DHT22;15074;50.940;5.282;2023-02-15T23:00:53;3.80;99.90
27667;DHT22;15074;50.940;5.282;2023-02-15T23:34:42;4.20;99.90
27667;DHT22;15074;50.940;5.282;2023-02-15T23:37:11;4.10;99.90
27667;DHT22;15074;50.940;5.282;2023-02-15T23:39:37;4.10;99.90
27667;DHT22;15074;50.940;5.282;2023-02-15T23:42:27;4.10;99.90
27667;DHT22;15074;50.940;5.282;2023-02-15T23:44:54;4.20;99.90
27667;DHT22;15074;50.940;5.282;2023-02-15T23:47:28;4.20;99.90
27667;DHT22;15074;50.940;5.282;2023-02-15T23:50:28;3.90;99.90
27667;DHT22;15074;50.940;5.282;2023-02-15T23:52:55;3.90;99.90
27667;DHT22;15074;50.940;5.282;2023-02-15T23:55:21;3.90;99.90
27667;DHT22;15074;50.940;5.282;2023-02-15T23:57:48;3.90;99.90
